Time;durP1;ratioP1;P1;durP2;ratioP2;P2;SDS_P1;SDS_P2;PMS_P1;PMS_P2;Temp;Humidity;BMP_temperature;BMP_pressure;BME280_temperature;BME280_humidity;BME280_pressure;Samples;Min_cycle;Max_cycle;Signal;HPM_P1;HPM_P2
2022/01/28 00:04:49;;;;;;;10.68;3.63;;;;;;;4.02;100.00;101946.66;5072498;28;20059;-60
2022/01/28 00:07:14;;;;;;;14.75;4.85;;;;;;;4.00;100.00;101948.41;5072807;28;20661;-60
2022/01/28 00:09:39;;;;;;;19.17;4.50;;;;;;;3.88;100.00;101938.00;5074100;28;20039;-60
2022/01/28 00:12:07;;;;;;;13.38;4.68;;;;;;;3.66;100.00;101910.22;5072698;28;20454;-60
2022/01/28 00:14:51;;;;;;;16.33;4.13;;;;;;;4.00;100.00;101969.22;5072848;28;20029;-59
2022/01/28 00:38:48;;;;;;;9.32;3.30;;;;;;;3.81;100.00;102014.25;5074051;28;20036;-60
2022/01/28 00:41:14;;;;;;;8.43;3.50;;;;;;;3.73;100.00;102020.25;5070818;28;20390;-60
2022/01/28 00:43:41;;;;;;;25.15;4.20;;;;;;;3.72;100.00;102018.53;5065822;28;20025;-60
2022/01/28 00:46:07;;;;;;;16.40;4.28;;;;;;;3.66;100.00;102032.38;5070331;28;20107;-60
2022/01/28 00:48:32;;;;;;;21.02;5.00;;;;;;;3.60;100.00;102029.75;5068343;28;20028;-60
2022/01/28 00:50:58;;;;;;;11.57;3.88;;;;;;;3.58;100.00;102037.53;5067342;28;20032;-60
2022/01/28 00:53:23;;;;;;;13.13;4.18;;;;;;;3.53;100.00;102027.97;5069157;28;20471;-60
2022/01/28 00:55:48;;;;;;;16.33;4.47;;;;;;;3.51;100.00;102030.59;5070596;28;20033;-60
2022/01/28 00:58:14;;;;;;;20.40;4.18;;;;;;;3.48;100.00;102024.50;5068344;28;20035;-60
2022/01/28 01:00:40;;;;;;;9.77;4.03;;;;;;;3.52;100.00;102028.81;5068295;28;20028;-60
2022/01/28 01:03:05;;;;;;;22.95;5.10;;;;;;;3.44;100.00;102030.53;5065659;28;20848;-60
2022/01/28 01:05:32;;;;;;;11.43;3.42;;;;;;;3.44;100.00;102025.34;5064756;28;20071;-60
2022/01/28 01:07:59;;;;;;;16.02;4.18;;;;;;;3.46;100.00;102029.69;5066355;28;20093;-60
2022/01/28 01:10:26;;;;;;;15.60;5.07;;;;;;;3.48;100.00;102034.91;5066606;28;20024;-60
2022/01/28 01:12:51;;;;;;;11.63;3.55;;;;;;;3.45;100.00;102037.44;5066779;28;20130;-60
2022/01/28 01:15:21;;;;;;;16.95;4.38;;;;;;;3.39;100.00;102040.88;5064474;28;20390;-60
2022/01/28 01:23:06;;;;;;;11.65;3.97;;;;;;;3.45;100.00;102035.72;5082193;28;20041;-60
2022/01/28 01:25:41;;;;;;;15.30;4.07;;;;;;;3.02;100.00;101971.41;5064350;28;20044;-60
2022/01/28 01:28:07;;;;;;;13.25;3.60;;;;;;;3.44;100.00;102048.72;5064189;28;20043;-62
2022/01/28 01:30:38;;;;;;;20.88;3.80;;;;;;;3.40;100.00;102049.56;5065004;28;20037;-60
2022/01/28 01:33:04;;;;;;;9.65;3.65;;;;;;;3.40;100.00;102057.34;5067983;28;20833;-61
2022/01/28 01:35:29;;;;;;;16.67;3.60;;;;;;;3.37;100.00;102062.53;5068631;28;20048;-61
2022/01/28 01:37:55;;;;;;;18.88;3.83;;;;;;;3.42;100.00;102071.22;5067423;28;20039;-61
2022/01/28 01:40:27;;;;;;;19.55;5.10;;;;;;;3.45;100.00;102071.22;5069441;28;20475;-61
2022/01/28 01:43:05;;;;;;;12.15;3.47;;;;;;;3.38;100.00;102066.88;5066320;28;20501;-61
2022/01/28 01:53:24;;;;;;;16.88;4.50;;;;;;;3.41;100.00;102070.34;5064963;28;20047;-60
2022/01/28 01:55:50;;;;;;;13.93;3.75;;;;;;;3.38;100.00;102080.72;5052404;28;20029;-60
2022/01/28 01:58:15;;;;;;;18.13;3.42;;;;;;;3.36;100.00;102086.75;5080869;28;20471;-60
2022/01/28 02:00:40;;;;;;;11.75;3.17;;;;;;;3.32;100.00;102090.19;5064474;28;20505;-60
2022/01/28 02:05:35;;;;;;;16.77;4.50;;;;;;;3.25;100.00;102106.59;5009097;28;20402;-60
2022/01/28 02:08:06;;;;;;;17.80;4.38;;;;;;;3.25;100.00;102099.69;5048704;28;20033;-60
2022/01/28 02:10:33;;;;;;;12.02;3.58;;;;;;;3.23;100.00;102108.31;5042145;28;20039;-60
2022/01/28 02:12:58;;;;;;;10.60;3.47;;;;;;;2.69;100.00;102038.66;5030495;28;20099;-60
2022/01/28 02:15:24;;;;;;;10.50;3.42;;;;;;;3.07;100.00;102126.41;5045114;28;20033;-59
2022/01/28 02:17:49;;;;;;;10.73;3.08;;;;;;;3.05;100.00;102116.84;5046017;28;20028;-60
2022/01/28 02:20:29;;;;;;;7.53;3.35;;;;;;;3.07;100.00;102130.72;5047204;28;20039;-60
2022/01/28 02:22:54;;;;;;;8.30;2.80;;;;;;;3.08;100.00;102119.44;5043609;28;20033;-59
2022/01/28 02:25:25;;;;;;;12.70;4.25;;;;;;;3.07;100.00;102123.81;5043761;28;20050;-59
2022/01/28 02:27:51;;;;;;;13.48;3.75;;;;;;;3.01;100.00;102122.84;5030009;28;20045;-59
2022/01/28 02:30:16;;;;;;;7.25;2.83;;;;;;;2.92;100.00;102115.88;5029257;28;20471;-59
2022/01/28 02:32:43;;;;;;;9.32;2.80;;;;;;;2.81;100.00;102124.41;5032071;28;20609;-59
2022/01/28 02:35:09;;;;;;;7.55;2.85;;;;;;;2.74;100.00;102125.22;5029626;28;20071;-60
2022/01/28 02:37:34;;;;;;;7.68;3.13;;;;;;;2.69;100.00;102124.31;5029118;28;20475;-60
2022/01/28 02:40:00;;;;;;;23.98;3.97;;;;;;;2.68;100.00;102123.44;5028817;28;20854;-60
2022/01/28 02:42:43;;;;;;;20.73;3.80;;;;;;;2.67;100.00;102131.22;5013559;28;20068;-60
2022/01/28 02:45:09;;;;;;;9.27;3.38;;;;;;;2.64;100.00;102134.63;5008086;28;20046;-60
2022/01/28 02:47:37;;;;;;;8.63;2.92;;;;;;;2.64;100.00;102129.44;5004684;28;20553;-60
2022/01/28 02:50:07;;;;;;;11.00;3.33;;;;;;;2.63;100.00;102138.09;5006880;28;20761;-60
2022/01/28 02:52:38;;;;;;;13.48;3.63;;;;;;;2.60;100.00;102137.19;5005117;28;20871;-59
2022/01/28 02:55:09;;;;;;;12.52;3.53;;;;;;;2.64;100.00;102139.81;5005128;28;20041;-60
2022/01/28 02:57:38;;;;;;;7.85;3.33;;;;;;;2.64;100.00;102139.81;5006997;28;20038;-60
2022/01/28 03:00:05;;;;;;;9.10;3.03;;;;;;;2.61;100.00;102139.78;4991005;28;20037;-60
2022/01/28 03:02:30;;;;;;;12.20;4.70;;;;;;;2.62;100.00;102140.66;5007958;28;20048;-59
2022/01/28 03:05:24;;;;;;;14.27;3.67;;;;;;;2.58;100.00;102137.16;5005550;28;20046;-60
2022/01/28 03:07:46;;;;;;;11.10;3.05;;;;;;;2.49;100.00;102132.75;5006338;28;20037;-59
2022/01/28 03:10:26;;;;;;;10.52;3.63;;;;;;;2.44;100.00;102138.72;5008688;28;20065;-59
2022/01/28 03:13:15;;;;;;;9.40;3.17;;;;;;;2.35;100.00;102141.22;5004438;28;20041;-60
2022/01/28 03:15:45;;;;;;;16.55;4.00;;;;;;;2.29;100.00;102141.16;5004821;28;20564;-60
2022/01/28 03:18:14;;;;;;;14.70;5.78;;;;;;;2.24;100.00;102140.22;5005344;28;20025;-60
2022/01/28 03:20:56;;;;;;;16.33;4.75;;;;;;;2.23;100.00;102156.66;5003837;28;20041;-61
2022/01/28 03:23:22;;;;;;;13.38;4.88;;;;;;;2.05;100.00;102137.44;5006625;28;20036;-60
2022/01/28 03:25:48;;;;;;;8.60;4.07;;;;;;;2.17;100.00;102161.75;5003817;28;20030;-60
2022/01/28 03:28:15;;;;;;;16.63;5.13;;;;;;;2.23;100.00;102151.47;5004998;28;20033;-60
2022/01/28 03:30:41;;;;;;;20.45;5.68;;;;;;;2.26;100.00;102143.72;5004589;28;20045;-60
2022/01/28 03:33:06;;;;;;;11.77;5.68;;;;;;;2.21;100.00;102142.78;5006460;28;20498;-60
2022/01/28 03:35:34;;;;;;;9.68;3.88;;;;;;;2.17;100.00;102143.59;5008128;28;20387;-60
2022/01/28 03:38:00;;;;;;;13.75;5.28;;;;;;;1.80;100.00;102091.31;5006567;28;20855;-60
2022/01/28 03:40:26;;;;;;;13.43;5.57;;;;;;;2.17;100.00;102151.38;5008077;28;20133;-61
2022/01/28 03:42:51;;;;;;;15.10;5.47;;;;;;;2.16;100.00;102162.63;5006993;28;20057;-61
2022/01/28 03:45:17;;;;;;;15.23;5.00;;;;;;;2.11;100.00;102162.56;5005640;28;20068;-61
2022/01/28 03:47:42;;;;;;;11.80;5.10;;;;;;;2.08;100.00;102156.44;5002572;28;20037;-60
2022/01/28 03:50:08;;;;;;;11.60;4.32;;;;;;;2.11;100.00;102167.72;5002723;28;20031;-60
2022/01/28 03:52:33;;;;;;;18.98;5.45;;;;;;;2.08;100.00;102161.63;5005120;28;20057;-60
2022/01/28 03:54:58;;;;;;;11.35;5.22;;;;;;;2.03;100.00;102159.84;5009907;28;20034;-60
2022/01/28 03:57:24;;;;;;;11.70;4.75;;;;;;;2.02;100.00;102160.72;4991753;28;20076;-61
2022/01/28 03:59:49;;;;;;;11.40;5.10;;;;;;;2.04;100.00;102169.38;5003218;28;20401;-60
2022/01/28 04:02:19;;;;;;;13.68;6.10;;;;;;;2.05;100.00;102167.66;5001579;28;20092;-60
2022/01/28 04:06:02;;;;;;;13.68;5.38;;;;;;;2.08;100.00;102166.81;5001894;28;20036;-60
2022/01/28 04:12:58;;;;;;;12.23;5.65;;;;;;;1.95;100.00;102171.84;5001550;28;20415;-60
2022/01/28 04:15:49;;;;;;;17.45;5.35;;;;;;;2.02;100.00;102181.47;5003635;28;20034;-60
2022/01/28 04:18:14;;;;;;;12.65;6.35;;;;;;;2.16;100.00;102185.94;5009134;28;20049;-60
2022/01/28 04:20:40;;;;;;;13.35;5.75;;;;;;;2.22;100.00;102186.91;5007408;28;20118;-60
2022/01/28 04:23:05;;;;;;;18.98;5.40;;;;;;;2.32;100.00;102195.66;5011970;28;20104;-60
2022/01/28 04:25:30;;;;;;;14.73;5.93;;;;;;;2.36;100.00;102195.72;5002283;28;20695;-60
2022/01/28 04:27:56;;;;;;;17.88;5.75;;;;;;;2.42;100.00;102189.72;5006789;28;20038;-60
2022/01/28 04:30:21;;;;;;;15.98;5.35;;;;;;;2.52;100.00;102191.59;5009949;28;20598;-60
2022/01/28 04:32:49;;;;;;;16.63;6.55;;;;;;;2.27;100.00;102140.25;5005870;28;20040;-60
2022/01/28 04:35:14;;;;;;;16.23;6.35;;;;;;;2.73;100.00;102207.41;5006193;28;20040;-60
2022/01/28 04:48:22;;;;;;;16.48;6.55;;;;;;;2.83;100.00;102211.84;5010126;28;20139;-60
2022/01/28 04:51:11;;;;;;;15.90;5.80;;;;;;;2.76;100.00;102212.63;5013891;28;20152;-60
2022/01/28 04:54:01;;;;;;;12.05;5.35;;;;;;;2.73;100.00;102222.97;5008676;28;20044;-60
2022/01/28 04:57:13;;;;;;;11.82;6.78;;;;;;;2.75;100.00;102222.97;5010036;28;20044;-60
2022/01/28 05:02:09;;;;;;;20.42;7.13;;;;;;;2.75;100.00;102226.44;5006288;28;20053;-60
2022/01/28 05:10:29;;;;;;;16.33;7.07;;;;;;;2.41;100.00;102213.91;5006114;28;20294;-60
2022/01/28 05:26:38;;;;;;;18.17;9.57;;;;;;;2.00;100.00;102234.09;4997711;28;21166;-61
2022/01/28 05:29:05;;;;;;;19.98;9.35;;;;;;;2.00;100.00;102234.97;4996554;28;20026;-61
2022/01/28 05:31:30;;;;;;;16.95;8.73;;;;;;;1.98;100.00;102241.88;5011593;28;20034;-60
2022/01/28 05:33:55;;;;;;;24.38;8.82;;;;;;;1.96;100.00;102238.38;5006891;28;20037;-60
2022/01/28 05:36:22;;;;;;;17.45;8.95;;;;;;;1.96;100.00;102240.13;5008878;28;20096;-60
2022/01/28 05:38:47;;;;;;;16.35;9.27;;;;;;;1.94;100.00;102247.88;5003253;28;20030;-61
2022/01/28 05:41:13;;;;;;;20.50;9.98;;;;;;;1.94;100.00;102244.41;5010762;28;20096;-60
2022/01/28 05:43:39;;;;;;;22.48;11.00;;;;;;;1.89;100.00;102248.66;5006940;28;20041;-60
2022/01/28 05:46:04;;;;;;;20.40;10.63;;;;;;;1.85;100.00;102265.00;5008465;28;20041;-60
2022/01/28 05:48:30;;;;;;;19.63;9.32;;;;;;;1.32;100.00;102181.28;5012200;28;20065;-60
2022/01/28 05:50:55;;;;;;;17.30;10.10;;;;;;;1.77;100.00;102267.47;5009440;28;20026;-60
2022/01/28 05:53:21;;;;;;;19.27;10.45;;;;;;;1.77;100.00;102275.25;4995184;28;20125;-60
2022/01/28 05:55:46;;;;;;;17.77;11.02;;;;;;;1.71;100.00;102269.09;4989231;28;20061;-60
2022/01/28 05:58:11;;;;;;;20.83;11.70;;;;;;;1.66;100.00;102274.19;5006719;28;20044;-60
2022/01/28 06:00:37;;;;;;;23.75;12.00;;;;;;;1.65;100.00;102285.41;5012384;28;20115;-60
2022/01/28 06:03:02;;;;;;;19.33;11.32;;;;;;;1.60;100.00;102287.03;5006433;28;20022;-60
2022/01/28 06:05:30;;;;;;;18.98;11.43;;;;;;;1.53;100.00;102291.25;5008573;28;20850;-60
2022/01/28 06:07:59;;;;;;;18.23;11.63;;;;;;;1.55;100.00;102299.06;5005255;28;20033;-60
2022/01/28 06:10:25;;;;;;;23.50;14.07;;;;;;;1.56;100.00;102300.78;5010136;28;20026;-60
2022/01/28 06:12:51;;;;;;;30.80;13.60;;;;;;;1.53;100.00;102305.91;5007826;28;20037;-60
2022/01/28 06:15:16;;;;;;;25.60;12.75;;;;;;;1.51;100.00;102312.78;5008567;28;20045;-60
2022/01/28 06:17:42;;;;;;;24.42;13.70;;;;;;;1.26;100.00;102275.22;4988606;28;20037;-60
2022/01/28 06:20:09;;;;;;;26.90;14.15;;;;;;;1.53;100.00;102308.50;5003843;28;20026;-60
2022/01/28 06:22:38;;;;;;;21.52;12.77;;;;;;;1.48;100.00;102312.75;5008157;28;20446;-60
2022/01/28 06:25:05;;;;;;;27.38;14.15;;;;;;;1.43;100.00;102319.53;5006662;28;20476;-60
2022/01/28 06:27:30;;;;;;;27.70;14.95;;;;;;;1.36;100.00;102315.97;5002917;28;20034;-60
2022/01/28 06:29:55;;;;;;;22.20;14.02;;;;;;;1.29;100.00;102321.00;5005983;28;20498;-60
2022/01/28 06:32:21;;;;;;;28.92;15.20;;;;;;;1.23;100.00;102323.50;5010513;28;20030;-60
2022/01/28 06:34:46;;;;;;;18.25;13.07;;;;;;;1.14;100.00;102320.72;5001960;28;20030;-60
2022/01/28 06:37:12;;;;;;;21.60;14.45;;;;;;;1.05;100.00;102321.41;5004210;28;20152;-60
2022/01/28 06:39:37;;;;;;;20.13;14.57;;;;;;;1.09;100.00;102337.88;5000478;28;20034;-59
2022/01/28 06:42:03;;;;;;;20.95;13.40;;;;;;;0.29;100.00;102231.06;5009167;28;20034;-59
2022/01/28 06:44:30;;;;;;;25.73;15.10;;;;;;;0.86;100.00;102346.06;5002919;28;20061;-59
2022/01/28 06:46:55;;;;;;;25.30;14.18;;;;;;;0.86;100.00;102350.34;5009680;28;20038;-59
2022/01/28 06:49:21;;;;;;;29.42;15.60;;;;;;;0.86;100.00;102352.94;5010444;28;20028;-59
2022/01/28 06:51:46;;;;;;;29.38;14.75;;;;;;;0.82;100.00;102354.59;5005820;28;20844;-59
2022/01/28 06:54:11;;;;;;;24.50;15.00;;;;;;;0.71;100.00;102350.91;5002236;28;20029;-59
2022/01/28 06:56:37;;;;;;;19.70;15.05;;;;;;;0.71;100.00;102360.41;5008618;28;20089;-59
2022/01/28 06:59:03;;;;;;;26.63;15.07;;;;;;;0.66;100.00;102355.13;5008174;28;20361;-60
2022/01/28 07:01:28;;;;;;;28.63;15.82;;;;;;;0.48;100.00;102326.25;5008207;28;20611;-59
2022/01/28 07:03:54;;;;;;;34.25;18.05;;;;;;;0.48;100.00;102337.47;5011090;28;20053;-60
2022/01/28 07:06:20;;;;;;;23.27;15.20;;;;;;;0.60;100.00;102367.03;5007435;28;20399;-59
2022/01/28 07:08:45;;;;;;;30.00;16.33;;;;;;;0.50;100.00;102376.31;5009885;28;20068;-59
2022/01/28 07:11:11;;;;;;;23.77;15.55;;;;;;;0.37;100.00;102375.13;5004721;28;20022;-59
2022/01/28 07:13:36;;;;;;;24.73;16.58;;;;;;;0.30;100.00;102380.16;5006266;28;20068;-60
2022/01/28 07:16:01;;;;;;;27.00;16.08;;;;;;;0.30;100.00;102385.31;5011007;28;20022;-59
2022/01/28 07:18:28;;;;;;;25.08;16.30;;;;;;;0.21;100.00;102388.53;5008282;28;20480;-59
2022/01/28 07:20:54;;;;;;;22.70;15.73;;;;;;;0.12;100.00;102401.25;5005401;28;20030;-59
2022/01/28 07:23:19;;;;;;;26.52;16.02;;;;;;;0.09;100.00;102397.72;5005319;28;20026;-59
2022/01/28 07:25:44;;;;;;;29.35;16.35;;;;;;;0.07;100.00;102405.41;5007855;28;20068;-59
2022/01/28 07:28:10;;;;;;;25.48;15.60;;;;;;;-0.05;100.00;102411.16;5005339;28;20488;-59
2022/01/28 07:30:35;;;;;;;30.50;15.25;;;;;;;-0.12;100.00;102418.72;5010060;28;20430;-59
2022/01/28 07:33:04;;;;;;;21.70;14.85;;;;;;;-0.12;100.00;102423.88;5007560;28;20117;-59
2022/01/28 07:35:30;;;;;;;25.38;18.50;;;;;;;-0.13;100.00;102422.13;5009310;28;20042;-59
2022/01/28 07:37:55;;;;;;;30.27;19.00;;;;;;;-0.05;100.00;102425.78;5009263;28;20026;-59
2022/01/28 07:40:21;;;;;;;29.35;17.80;;;;;;;-0.10;100.00;102420.50;5004929;28;20030;-59
2022/01/28 07:42:46;;;;;;;36.08;18.90;;;;;;;-0.11;100.00;102423.94;5009260;28;20025;-59
2022/01/28 07:45:16;;;;;;;39.70;18.15;;;;;;;-0.14;100.00;102417.81;5010630;28;20030;-59
2022/01/28 07:47:43;;;;;;;31.85;20.15;;;;;;;0.00;100.00;102424.22;4980561;28;20856;-59
2022/01/28 07:50:10;;;;;;;36.65;22.88;;;;;;;0.06;100.00;102421.78;4985819;28;20092;-59
2022/01/28 07:52:36;;;;;;;40.03;22.08;;;;;;;0.18;100.00;102428.94;4972548;28;20369;-59
2022/01/28 07:55:02;;;;;;;36.05;23.38;;;;;;;0.13;100.00;102405.59;4971057;28;20065;-59
2022/01/28 07:57:30;;;;;;;47.85;25.50;;;;;;;0.45;100.00;102432.19;4972192;28;20026;-60
2022/01/28 07:59:55;;;;;;;44.10;24.98;;;;;;;0.51;100.00;102429.75;4971469;28;20412;-58
2022/01/28 08:02:20;;;;;;;43.67;22.90;;;;;;;0.55;100.00;102431.56;4970870;28;20030;-59
2022/01/28 08:04:46;;;;;;;42.75;25.90;;;;;;;0.19;100.00;102363.50;4971478;28;20048;-60
2022/01/28 08:07:11;;;;;;;37.65;25.27;;;;;;;0.29;100.00;102375.81;4985574;28;20033;-59
2022/01/28 08:09:36;;;;;;;45.90;26.08;;;;;;;0.71;100.00;102438.00;4994427;28;20598;-60
2022/01/28 08:12:02;;;;;;;43.88;29.13;;;;;;;0.75;100.00;102445.84;4970724;28;20068;-60
2022/01/28 08:14:30;;;;;;;38.13;26.95;;;;;;;0.82;100.00;102449.44;4971429;28;20141;-60
2022/01/28 08:16:56;;;;;;;56.15;32.70;;;;;;;0.84;100.00;102451.25;4971807;28;20029;-60
2022/01/28 08:19:21;;;;;;;41.00;28.63;;;;;;;0.89;100.00;102439.25;4985707;28;20026;-59
2022/01/28 08:21:47;;;;;;;45.22;28.83;;;;;;;0.95;100.00;102444.56;4989911;28;20053;-59
2022/01/28 08:24:12;;;;;;;44.92;32.33;;;;;;;1.05;100.00;102440.47;4972605;28;20076;-59
2022/01/28 08:26:37;;;;;;;47.38;29.50;;;;;;;1.14;100.00;102455.34;4970484;28;20924;-59
2022/01/28 08:29:05;;;;;;;51.67;32.05;;;;;;;1.24;100.00;102452.09;4972752;28;20038;-59
2022/01/28 08:31:31;;;;;;;47.70;31.45;;;;;;;1.31;100.00;102448.78;4989296;28;20025;-58
2022/01/28 08:33:56;;;;;;;41.15;28.92;;;;;;;1.35;100.00;102448.03;4990136;28;20029;-59
2022/01/28 08:36:22;;;;;;;48.03;31.45;;;;;;;1.44;100.00;102455.97;4990363;28;20032;-59
2022/01/28 08:38:49;;;;;;;45.95;30.15;;;;;;;1.48;100.00;102458.66;4991223;28;20033;-58
2022/01/28 08:41:15;;;;;;;44.10;31.38;;;;;;;1.58;100.00;102462.31;4988829;28;20030;-59
2022/01/28 08:43:41;;;;;;;66.82;32.85;;;;;;;1.61;100.00;102467.53;4990377;28;20053;-59
2022/01/28 08:46:06;;;;;;;51.58;32.20;;;;;;;1.67;100.00;102467.66;4989886;28;20033;-59
2022/01/28 08:48:32;;;;;;;52.78;33.13;;;;;;;1.71;100.00;102477.22;4983496;28;20057;-59
2022/01/28 08:50:58;;;;;;;45.10;32.47;;;;;;;1.64;100.00;102462.41;4969651;28;20858;-59
2022/01/28 08:53:23;;;;;;;52.20;32.47;;;;;;;1.84;100.00;102493.88;4969217;28;20030;-59
2022/01/28 08:55:49;;;;;;;49.95;35.28;;;;;;;1.88;100.00;102480.16;4971545;28;20034;-59
2022/01/28 08:58:15;;;;;;;58.85;36.00;;;;;;;1.98;100.00;102487.25;4969533;28;20034;-59
2022/01/28 09:00:43;;;;;;;49.50;33.25;;;;;;;2.04;100.00;102498.59;4981195;28;21051;-60
2022/01/28 09:03:08;;;;;;;59.28;35.63;;;;;;;2.23;100.00;102498.94;4989889;28;20033;-60
2022/01/28 09:05:34;;;;;;;48.47;34.13;;;;;;;2.22;100.00;102468.66;4991681;28;20061;-59
2022/01/28 09:08:06;;;;;;;45.25;34.78;;;;;;;2.42;100.00;102496.69;4990287;28;20036;-60
2022/01/28 09:10:31;;;;;;;55.75;38.45;;;;;;;2.56;100.00;102495.19;4988654;28;20044;-60
2022/01/28 09:15:33;;;;;;;52.95;39.80;;;;;;;2.85;100.00;102495.66;4989358;28;20111;-59
2022/01/28 09:17:59;;;;;;;60.40;37.85;;;;;;;2.74;100.00;102471.25;4990077;28;20037;-59
2022/01/28 09:20:24;;;;;;;66.07;41.45;;;;;;;3.01;100.00;102502.81;4989234;28;20056;-59
2022/01/28 09:22:50;;;;;;;73.63;44.05;;;;;;;3.05;100.00;102501.13;4990962;28;20844;-59
2022/01/28 09:25:15;;;;;;;70.75;42.17;;;;;;;3.10;100.00;102496.88;4988484;28;20856;-60
2022/01/28 09:27:41;;;;;;;62.15;42.60;;;;;;;3.19;100.00;102510.00;4971261;28;20081;-60
2022/01/28 09:30:08;;;;;;;59.28;41.38;;;;;;;3.30;100.00;102507.53;4988372;28;20059;-60
2022/01/28 09:32:33;;;;;;;57.30;40.50;;;;;;;3.37;100.00;102496.38;4988793;28;20111;-59
2022/01/28 09:34:58;;;;;;;68.28;41.30;;;;;;;3.50;100.00;102496.56;4993837;28;20029;-60
2022/01/28 09:37:24;;;;;;;58.88;40.33;;;;;;;3.60;100.00;102492.34;4979969;28;20244;-60
2022/01/28 09:39:49;;;;;;;61.25;40.50;;;;;;;3.61;100.00;102494.09;4974555;28;20028;-60
2022/01/28 09:42:18;;;;;;;56.72;38.13;;;;;;;3.64;100.00;102504.53;4981422;28;20044;-60
2022/01/28 09:44:44;;;;;;;48.97;35.38;;;;;;;3.68;100.00;102495.91;4992578;28;20783;-59
2022/01/28 09:47:14;;;;;;;51.15;36.45;;;;;;;3.74;100.00;102501.19;4990046;28;20061;-60
2022/01/28 09:49:41;;;;;;;54.65;36.40;;;;;;;3.81;100.00;102503.00;4988842;28;20861;-59
2022/01/28 09:52:08;;;;;;;63.38;35.20;;;;;;;3.90;100.00;102503.09;4990191;28;20968;-60
2022/01/28 09:54:34;;;;;;;54.65;33.92;;;;;;;3.92;100.00;102505.72;4989018;28;20056;-60
2022/01/28 09:57:02;;;;;;;54.17;36.00;;;;;;;3.94;100.00;102515.28;4983884;28;20114;-60
2022/01/28 09:59:28;;;;;;;40.50;31.92;;;;;;;3.95;100.00;102508.34;4990674;28;20057;-60
2022/01/28 10:01:54;;;;;;;44.60;32.28;;;;;;;3.98;100.00;102511.84;4990409;28;20087;-59
2022/01/28 10:04:21;;;;;;;49.47;31.23;;;;;;;3.73;100.00;102468.22;4988409;28;20025;-60
2022/01/28 10:06:47;;;;;;;40.38;31.17;;;;;;;3.63;100.00;102453.38;4985561;28;20064;-60
2022/01/28 10:09:17;;;;;;;54.97;30.95;;;;;;;4.02;100.00;102513.59;4991248;28;20018;-60
2022/01/28 10:11:45;;;;;;;43.90;31.58;;;;;;;4.09;100.00;102525.81;4992973;28;20094;-60
2022/01/28 10:14:23;;;;;;;59.60;30.77;;;;;;;4.20;100.00;102528.53;4988419;28;20377;-59
2022/01/28 10:17:01;;;;;;;44.75;31.23;;;;;;;4.33;100.00;102521.72;4991742;28;20605;-60
2022/01/28 10:19:36;;;;;;;38.15;30.00;;;;;;;4.49;100.00;102526.25;4988880;28;20136;-60
2022/01/28 10:22:02;;;;;;;42.08;29.23;;;;;;;4.65;100.00;102522.91;4984151;28;20484;-60
2022/01/28 10:24:28;;;;;;;50.08;31.50;;;;;;;4.59;100.00;102486.41;4987394;28;20125;-60
2022/01/28 10:27:09;;;;;;;45.03;27.88;;;;;;;4.87;100.00;102519.59;4988532;28;20045;-60
2022/01/28 10:29:43;;;;;;;44.20;28.25;;;;;;;4.90;100.00;102516.16;4987349;28;20140;-60
2022/01/28 10:32:13;;;;;;;35.75;26.17;;;;;;;5.06;100.00;102516.28;4980988;28;20091;-60
2022/01/28 10:34:49;;;;;;;38.08;26.33;;;;;;;5.14;100.00;102517.16;4985450;28;20029;-60
2022/01/28 10:37:23;;;;;;;44.70;26.05;;;;;;;5.32;100.00;102518.16;4973714;28;20431;-60
2022/01/28 10:40:09;;;;;;;44.17;26.42;;;;;;;5.42;100.00;102507.78;4968211;28;20025;-60
2022/01/28 10:42:39;;;;;;;34.38;24.60;;;;;;;5.49;100.00;102509.56;4968927;28;20030;-60
2022/01/28 10:45:14;;;;;;;39.17;23.73;;;;;;;5.30;100.00;102472.97;4969943;28;20080;-60
2022/01/28 10:47:59;;;;;;;36.28;22.40;;;;;;;5.43;100.00;102519.97;4968023;28;20034;-60
2022/01/28 10:50:31;;;;;;;32.53;22.50;;;;;;;5.35;100.00;102534.66;4967846;28;20381;-60
2022/01/28 10:53:13;;;;;;;32.80;20.27;;;;;;;5.27;100.00;102525.09;4968237;28;20212;-60
2022/01/28 10:55:41;;;;;;;35.22;21.40;;;;;;;5.24;100.00;102517.25;4967879;28;20096;-60
2022/01/28 10:58:18;;;;;;;39.42;22.27;;;;;;;5.18;100.00;102525.00;4968274;28;20198;-60
2022/01/28 11:00:48;;;;;;;36.55;22.38;;;;;;;5.22;100.00;102518.94;4968292;28;20107;-60
2022/01/28 11:03:16;;;;;;;45.95;21.67;;;;;;;5.29;100.00;102516.41;4967777;28;20033;-60
2022/01/28 11:05:43;;;;;;;32.13;21.63;;;;;;;5.29;100.00;102524.22;4968080;28;20033;-60
2022/01/28 11:08:11;;;;;;;43.35;21.20;;;;;;;5.30;100.00;102525.09;4966865;28;20055;-60
2022/01/28 11:10:37;;;;;;;36.25;21.58;;;;;;;5.32;100.00;102518.16;4966513;28;20022;-60
2022/01/28 11:13:03;;;;;;;33.42;23.15;;;;;;;5.30;100.00;102493.81;4968247;28;20030;-61
2022/01/28 11:15:29;;;;;;;33.47;23.35;;;;;;;5.49;100.00;102516.50;4967854;28;20140;-61
2022/01/28 11:17:55;;;;;;;29.90;21.42;;;;;;;5.43;100.00;102511.25;4966945;28;20096;-61
2022/01/28 11:20:29;;;;;;;33.67;23.00;;;;;;;5.45;100.00;102514.72;4966734;28;20029;-61
2022/01/28 11:23:39;;;;;;;33.22;23.42;;;;;;;5.59;100.00;102518.28;4967052;28;20030;-61
2022/01/28 11:26:18;;;;;;;29.70;21.73;;;;;;;5.56;100.00;102513.94;4961355;28;20030;-61
2022/01/28 11:28:50;;;;;;;30.42;21.17;;;;;;;5.42;100.00;102488.66;4967649;28;20120;-59
2022/01/28 11:31:43;;;;;;;35.67;20.42;;;;;;;5.71;100.00;102505.31;4966392;28;20095;-59
2022/01/28 11:34:18;;;;;;;29.83;20.27;;;;;;;5.68;100.00;102449.66;4966711;28;20033;-59
2022/01/28 11:36:44;;;;;;;27.98;20.40;;;;;;;6.00;100.00;102494.97;4965647;28;20436;-60
2022/01/28 11:39:41;;;;;;;30.80;20.83;;;;;;;6.27;100.00;102491.53;4966673;28;20121;-59
2022/01/28 11:42:29;;;;;;;25.88;19.65;;;;;;;6.42;100.00;102483.75;4958122;28;20048;-59
2022/01/28 11:45:00;;;;;;;32.50;19.48;;;;;;;6.37;100.00;102491.56;4967770;28;20042;-60
2022/01/28 11:47:34;;;;;;;30.98;18.48;;;;;;;6.27;100.00;102483.72;4967772;28;20025;-60
2022/01/28 11:50:05;;;;;;;43.30;21.50;;;;;;;6.08;100.00;102478.44;4965642;28;20372;-60
2022/01/28 11:52:41;;;;;;;32.15;18.38;;;;;;;5.98;100.00;102481.91;4967325;28;20467;-59
2022/01/28 11:55:25;;;;;;;28.65;19.77;;;;;;;6.11;100.00;102478.50;4967491;28;20026;-59
2022/01/28 11:57:56;;;;;;;34.85;20.02;;;;;;;6.62;100.00;102476.78;4968387;28;20034;-59
2022/01/28 12:00:31;;;;;;;26.50;17.90;;;;;;;7.20;100.00;102474.91;4974090;28;20033;-61
2022/01/28 12:02:56;;;;;;;32.78;17.65;;;;;;;7.08;100.00;102472.34;4991819;28;20061;-61
2022/01/28 12:05:29;;;;;;;26.65;17.77;;;;;;;6.74;100.00;102466.31;4986697;28;20030;-61
2022/01/28 12:07:55;;;;;;;25.17;18.00;;;;;;;6.48;100.00;102461.09;4986774;28;20053;-61
2022/01/28 12:10:22;;;;;;;31.98;17.25;;;;;;;6.14;100.00;102441.94;4984969;28;20060;-61
2022/01/28 12:12:58;;;;;;;30.00;18.55;;;;;;;6.09;100.00;102461.94;4981291;28;20030;-61
2022/01/28 12:15:24;;;;;;;33.60;21.05;;;;;;;5.96;100.00;102444.53;4972491;28;20055;-61
2022/01/28 12:17:51;;;;;;;39.22;22.02;;;;;;;5.94;100.00;102454.09;4967131;28;20026;-61
2022/01/28 12:20:21;;;;;;;29.33;21.05;;;;;;;6.10;100.00;102455.84;4967068;28;20026;-61
2022/01/28 12:23:24;;;;;;;31.95;21.05;;;;;;;6.60;100.00;102455.88;4967353;28;20037;-61
2022/01/28 12:25:54;;;;;;;33.97;20.55;;;;;;;6.96;100.00;102454.94;4967323;28;20513;-61
2022/01/28 12:28:23;;;;;;;31.40;18.70;;;;;;;6.87;100.00;102454.97;4977822;28;20037;-60
2022/01/28 12:31:00;;;;;;;27.10;19.45;;;;;;;6.66;100.00;102453.25;4965264;28;20044;-61
2022/01/28 12:33:28;;;;;;;33.20;18.67;;;;;;;6.07;100.00;102367.13;4980344;28;20100;-61
2022/01/28 12:35:56;;;;;;;33.40;19.85;;;;;;;6.65;100.00;102450.66;4986716;28;20083;-61
2022/01/28 12:38:24;;;;;;;30.30;18.42;;;;;;;6.51;100.00;102410.63;4985414;28;20038;-61
2022/01/28 12:40:54;;;;;;;27.63;19.67;;;;;;;6.77;100.00;102450.63;4970435;28;20136;-61